Time;durP1;ratioP1;P1;durP2;ratioP2;P2;SDS_P1;SDS_P2;PMS_P1;PMS_P2;Temp;Humidity;BMP_temperature;BMP_pressure;BME280_temperature;BME280_humidity;BME280_pressure;Samples;Min_cycle;Max_cycle;Signal;HPM_P1;HPM_P2
2021/09/24 00:01:50;;;;;;;7.88;1.25;;;;;;;11.04;83.63;99168.25;5085600;28;20499;-72
2021/09/24 00:04:16;;;;;;;7.10;1.02;;;;;;;11.04;83.77;99168.25;5103638;28;20031;-71
2021/09/24 00:06:43;;;;;;;6.78;1.38;;;;;;;11.02;83.76;99170.06;5103787;28;20048;-72
2021/09/24 00:09:09;;;;;;;5.07;1.45;;;;;;;10.99;83.91;99172.75;5103908;28;20026;-71
2021/09/24 00:11:36;;;;;;;4.53;0.98;;;;;;;11.03;83.62;99180.41;5103839;28;20028;-72
2021/09/24 00:14:02;;;;;;;4.57;1.92;;;;;;;10.99;84.06;99186.56;5103616;28;20544;-71
2021/09/24 00:16:28;;;;;;;7.82;1.48;;;;;;;10.99;84.21;99185.75;5103695;28;20391;-72
2021/09/24 00:18:53;;;;;;;7.47;1.30;;;;;;;10.90;83.14;99185.13;5103670;28;20502;-72
2021/09/24 00:21:19;;;;;;;7.63;1.10;;;;;;;10.91;83.54;99196.34;5103836;28;20306;-72
2021/09/24 00:23:44;;;;;;;6.53;1.05;;;;;;;10.90;83.93;99192.91;5102835;28;20056;-72
2021/09/24 00:26:09;;;;;;;4.90;1.45;;;;;;;10.86;83.57;99196.47;5103346;28;20016;-71
2021/09/24 00:28:35;;;;;;;15.93;1.40;;;;;;;10.83;83.73;99193.13;5103606;28;20091;-71
2021/09/24 00:31:00;;;;;;;2.65;0.90;;;;;;;10.82;83.63;99184.47;5103382;28;20035;-71
2021/09/24 00:33:27;;;;;;;7.63;1.05;;;;;;;10.80;83.67;99191.47;5103313;28;20024;-71
2021/09/24 00:35:54;;;;;;;3.95;0.88;;;;;;;10.81;83.81;99185.41;5103440;28;20113;-72
2021/09/24 00:38:20;;;;;;;8.32;1.13;;;;;;;10.80;83.84;99186.25;5085437;28;20028;-71
2021/09/24 00:40:46;;;;;;;6.40;1.55;;;;;;;10.80;83.76;99198.41;5103677;28;20024;-71
2021/09/24 00:43:11;;;;;;;5.72;1.63;;;;;;;10.81;83.97;99197.50;5103451;28;20106;-71
2021/09/24 00:45:36;;;;;;;4.47;1.15;;;;;;;10.81;83.88;99193.19;5084961;28;20027;-72
2021/09/24 00:48:02;;;;;;;5.95;1.10;;;;;;;10.81;83.69;99194.91;5103159;28;20028;-71
2021/09/24 00:50:28;;;;;;;6.97;1.25;;;;;;;10.79;83.75;99205.34;5103482;28;20027;-72
2021/09/24 00:52:53;;;;;;;4.00;0.73;;;;;;;10.78;83.69;99208.84;5103394;28;20088;-72
2021/09/24 00:55:20;;;;;;;6.05;1.30;;;;;;;10.74;83.58;99212.41;5084848;28;20023;-71
2021/09/24 00:57:46;;;;;;;8.80;1.27;;;;;;;10.70;83.51;99214.25;5103493;28;20048;-71
2021/09/24 01:00:12;;;;;;;9.88;1.20;;;;;;;10.69;83.65;99229.88;5103247;28;20573;-71
2021/09/24 01:02:37;;;;;;;7.50;1.50;;;;;;;10.66;83.84;99225.59;5085069;28;20020;-72
2021/09/24 01:05:04;;;;;;;7.85;1.02;;;;;;;10.64;83.88;99217.84;5102913;28;20012;-70
2021/09/24 01:07:29;;;;;;;6.05;0.93;;;;;;;10.64;83.39;99222.19;5085075;28;20024;-72
2021/09/24 01:09:55;;;;;;;1.98;0.80;;;;;;;10.63;83.58;99223.97;5103193;28;20579;-73
2021/09/24 01:12:21;;;;;;;5.22;1.13;;;;;;;10.63;84.13;99231.75;5103103;28;20479;-72
2021/09/24 01:15:00;;;;;;;3.47;0.90;;;;;;;10.65;84.38;99224.75;5102968;28;20460;-71
2021/09/24 01:17:25;;;;;;;3.67;0.82;;;;;;;10.66;84.24;99223.88;5103059;28;20422;-72
2021/09/24 01:19:51;;;;;;;5.97;1.65;;;;;;;10.65;84.21;99222.16;5103052;28;20028;-71
2021/09/24 01:22:17;;;;;;;4.35;0.90;;;;;;;10.70;84.23;99228.97;5103031;28;20032;-72
2021/09/24 01:24:42;;;;;;;8.07;1.20;;;;;;;10.64;84.06;99219.59;5102763;28;20069;-72
2021/09/24 01:27:07;;;;;;;13.73;2.65;;;;;;;10.64;84.28;99225.66;5102720;28;20024;-72
2021/09/24 01:29:33;;;;;;;4.88;0.80;;;;;;;10.63;84.20;99233.47;5103014;28;20119;-72
2021/09/24 01:31:58;;;;;;;3.60;1.00;;;;;;;10.58;84.27;99218.03;5102884;28;20493;-72
2021/09/24 01:34:24;;;;;;;4.18;0.75;;;;;;;10.56;84.34;99214.63;5103104;28;20047;-70
2021/09/24 01:36:49;;;;;;;2.72;0.75;;;;;;;10.56;83.84;99224.16;5106525;28;20024;-72
2021/09/24 01:39:15;;;;;;;4.07;1.00;;;;;;;10.54;84.11;99232.81;5106652;28;20379;-72
2021/09/24 01:41:43;;;;;;;3.78;1.17;;;;;;;10.54;84.10;99226.81;5106635;28;20059;-72
2021/09/24 01:44:08;;;;;;;4.68;1.15;;;;;;;10.53;83.71;99228.53;5106616;28;20047;-72
2021/09/24 01:46:42;;;;;;;1.90;0.68;;;;;;;10.52;83.61;99233.78;5088056;28;20027;-72
2021/09/24 01:49:08;;;;;;;4.47;1.42;;;;;;;10.48;83.61;99238.19;5106402;28;20024;-73
2021/09/24 01:51:35;;;;;;;6.32;0.82;;;;;;;10.45;83.20;99232.22;5106561;28;20035;-72
2021/09/24 01:54:01;;;;;;;5.82;0.80;;;;;;;10.44;83.61;99231.34;5106375;28;20028;-72
2021/09/24 01:56:26;;;;;;;34.88;1.95;;;;;;;10.36;83.69;99228.97;5106005;28;20046;-72
2021/09/24 01:58:51;;;;;;;5.28;0.90;;;;;;;10.39;84.10;99235.81;5106491;28;20027;-73
2021/09/24 02:01:17;;;;;;;4.53;0.95;;;;;;;10.36;84.14;99238.50;5106099;28;20495;-72
2021/09/24 02:03:42;;;;;;;3.17;0.93;;;;;;;10.36;83.79;99243.69;5106327;28;20020;-72
2021/09/24 02:06:08;;;;;;;4.55;1.00;;;;;;;10.35;84.04;99244.56;5087952;28;20515;-72
2021/09/24 02:08:33;;;;;;;6.65;0.82;;;;;;;10.27;84.07;99229.22;5106395;28;20050;-73
2021/09/24 02:10:58;;;;;;;8.40;1.17;;;;;;;10.29;83.81;99242.97;5106081;28;20028;-72
2021/09/24 02:13:24;;;;;;;6.82;1.75;;;;;;;10.26;84.18;99243.06;5105876;28;20016;-72
2021/09/24 02:15:49;;;;;;;3.90;1.48;;;;;;;10.23;83.89;99245.72;5105855;28;20032;-72
2021/09/24 02:18:17;;;;;;;3.30;0.77;;;;;;;10.24;84.04;99252.66;5105695;28;20016;-73
2021/09/24 02:20:43;;;;;;;4.88;1.08;;;;;;;10.21;84.09;99260.50;5106093;28;20020;-72
2021/09/24 02:23:09;;;;;;;5.05;0.90;;;;;;;10.19;83.75;99254.50;5105721;28;20048;-72
2021/09/24 02:25:34;;;;;;;3.03;1.17;;;;;;;10.17;84.15;99251.94;5105706;28;20016;-73
2021/09/24 02:27:59;;;;;;;5.43;0.90;;;;;;;10.17;84.15;99255.38;5105786;28;20472;-72
2021/09/24 02:30:25;;;;;;;5.38;1.35;;;;;;;10.13;83.94;99256.34;5105655;28;20024;-73
2021/09/24 02:32:50;;;;;;;9.48;1.00;;;;;;;10.09;84.00;99252.13;5105670;28;20111;-73
2021/09/24 02:35:16;;;;;;;6.47;1.27;;;;;;;10.11;84.21;99254.69;5105205;28;20028;-72
2021/09/24 02:37:41;;;;;;;4.63;1.00;;;;;;;10.08;84.23;99244.41;5105429;28;20047;-72
2021/09/24 02:40:07;;;;;;;5.78;1.50;;;;;;;10.06;84.13;99253.94;5105620;28;20028;-72
2021/09/24 02:42:32;;;;;;;3.63;0.80;;;;;;;10.06;84.17;99260.00;5105702;28;20031;-73
2021/09/24 02:44:58;;;;;;;2.38;0.75;;;;;;;10.01;84.07;99252.34;5105237;28;20017;-72
2021/09/24 02:47:23;;;;;;;4.35;0.63;;;;;;;10.01;84.26;99256.66;5105018;28;20033;-72
2021/09/24 02:49:48;;;;;;;5.40;0.90;;;;;;;9.89;84.30;99245.69;5087335;28;20024;-72
2021/09/24 02:52:14;;;;;;;3.78;1.10;;;;;;;9.96;84.28;99261.09;5087409;28;20055;-73
2021/09/24 02:54:40;;;;;;;2.78;0.90;;;;;;;9.95;84.46;99267.19;5105150;28;20157;-73
2021/09/24 02:57:05;;;;;;;3.15;0.90;;;;;;;9.96;84.52;99267.16;5105186;28;20101;-72
2021/09/24 02:59:31;;;;;;;7.07;1.15;;;;;;;9.95;84.12;99265.44;5105126;28;20028;-72
2021/09/24 03:01:58;;;;;;;4.10;0.80;;;;;;;9.90;84.48;99252.56;5105142;28;20077;-73
2021/09/24 03:04:24;;;;;;;6.97;1.10;;;;;;;9.96;84.53;99258.50;5104851;28;20087;-72
2021/09/24 03:06:49;;;;;;;7.53;1.15;;;;;;;9.96;84.59;99256.78;5104907;28;20083;-71
2021/09/24 03:09:14;;;;;;;3.67;1.40;;;;;;;9.94;84.36;99262.88;5104859;28;20032;-71
2021/09/24 03:11:40;;;;;;;2.00;0.90;;;;;;;9.92;84.63;99266.34;5104992;28;20032;-71
2021/09/24 03:14:05;;;;;;;4.47;0.80;;;;;;;9.90;84.67;99277.66;5104981;28;20073;-71
2021/09/24 03:16:31;;;;;;;5.30;1.08;;;;;;;9.89;84.49;99279.41;5104698;28;20055;-71
2021/09/24 03:18:56;;;;;;;2.55;0.85;;;;;;;9.88;84.42;99290.66;5104830;28;20028;-71
2021/09/24 03:21:22;;;;;;;7.57;1.30;;;;;;;9.88;84.66;99290.66;5104563;28;20072;-71
2021/09/24 03:23:47;;;;;;;1.88;0.75;;;;;;;9.84;84.64;99286.41;5104404;28;20081;-70
2021/09/24 03:26:13;;;;;;;3.55;0.63;;;;;;;9.82;84.37;99280.44;5104500;28;20021;-72
2021/09/24 03:28:39;;;;;;;4.60;0.90;;;;;;;9.87;84.41;99286.34;5104678;28;20556;-71
2021/09/24 03:31:04;;;;;;;3.70;0.90;;;;;;;9.91;84.57;99289.72;5104526;28;20053;-73
2021/09/24 03:33:30;;;;;;;5.82;1.10;;;;;;;9.91;84.31;99282.81;5104327;28;20070;-72
2021/09/24 03:35:55;;;;;;;4.50;0.90;;;;;;;9.94;84.54;99281.00;5085962;28;20016;-71
2021/09/24 03:38:21;;;;;;;2.35;0.70;;;;;;;9.90;84.27;99273.31;5104367;28;20020;-72
2021/09/24 03:40:46;;;;;;;3.50;1.05;;;;;;;9.92;84.00;99274.13;5085965;28;20016;-72
2021/09/24 03:43:12;;;;;;;3.47;1.20;;;;;;;9.92;84.06;99292.28;5104240;28;20019;-72
2021/09/24 03:45:38;;;;;;;5.20;1.08;;;;;;;9.88;83.26;99285.47;5104048;28;20028;-71
2021/09/24 03:48:03;;;;;;;1.98;0.60;;;;;;;9.91;83.42;99287.13;5104248;28;20024;-72
2021/09/24 03:50:29;;;;;;;3.97;0.80;;;;;;;9.91;83.41;99288.00;5104116;28;20024;-72
2021/09/24 03:52:55;;;;;;;1.17;0.82;;;;;;;9.90;83.49;99282.84;5104391;28;20532;-70
2021/09/24 03:55:20;;;;;;;3.58;1.17;;;;;;;9.91;83.58;99294.91;5103733;28;20024;-70
2021/09/24 03:57:47;;;;;;;5.47;0.80;;;;;;;9.92;83.23;99287.09;5103212;28;20096;-70
2021/09/24 04:00:13;;;;;;;3.50;0.70;;;;;;;9.87;83.42;99286.34;5103978;28;20024;-70
2021/09/24 04:02:38;;;;;;;6.00;1.20;;;;;;;9.86;83.54;99296.75;5104033;28;20494;-70
2021/09/24 04:05:05;;;;;;;3.33;1.00;;;;;;;9.85;83.46;99305.44;5085395;28;20040;-70
2021/09/24 04:07:30;;;;;;;1.90;0.70;;;;;;;9.83;83.23;99308.06;5103470;28;20108;-70
2021/09/24 04:09:56;;;;;;;3.92;0.95;;;;;;;9.84;82.51;99317.53;5103494;28;20024;-72
2021/09/24 04:12:21;;;;;;;4.63;1.15;;;;;;;9.82;82.25;99310.69;5103641;28;20028;-70
2021/09/24 04:14:46;;;;;;;5.90;1.10;;;;;;;9.81;82.61;99314.19;5103426;28;20019;-71
2021/09/24 04:17:12;;;;;;;4.25;0.65;;;;;;;9.73;81.82;99316.94;5103414;28;20393;-70
2021/09/24 04:19:37;;;;;;;3.40;0.65;;;;;;;9.77;82.57;99313.38;5103462;28;20040;-70
2021/09/24 04:22:03;;;;;;;7.45;0.93;;;;;;;9.78;82.78;99315.06;5103519;28;20023;-74
2021/09/24 04:24:28;;;;;;;2.92;0.85;;;;;;;9.77;83.50;99313.38;5103000;28;20044;-69
2021/09/24 04:26:53;;;;;;;5.20;0.90;;;;;;;9.76;83.87;99312.53;5103255;28;20024;-70
2021/09/24 04:29:19;;;;;;;5.57;1.20;;;;;;;9.75;83.62;99309.97;5085105;28;20048;-69
2021/09/24 04:31:44;;;;;;;1.90;0.90;;;;;;;9.77;83.61;99313.38;5103492;28;20024;-69
2021/09/24 04:34:10;;;;;;;3.50;0.90;;;;;;;9.72;83.45;99323.00;5102840;28;20020;-71
2021/09/24 04:36:36;;;;;;;6.78;1.23;;;;;;;9.75;83.63;99322.94;5103054;28;20016;-70
2021/09/24 04:39:03;;;;;;;2.15;0.70;;;;;;;9.73;83.56;99324.72;5103372;28;20508;-72
2021/09/24 04:41:29;;;;;;;3.00;1.00;;;;;;;9.74;83.80;99318.63;5084968;28;20024;-72
2021/09/24 04:43:54;;;;;;;3.85;0.63;;;;;;;9.75;83.82;99322.94;5103454;28;20038;-72
2021/09/24 04:46:19;;;;;;;4.03;0.98;;;;;;;9.73;83.81;99320.38;5103655;28;20083;-73
2021/09/24 04:48:45;;;;;;;8.52;1.02;;;;;;;9.74;83.98;99326.41;5102720;28;20035;-72
2021/09/24 04:51:11;;;;;;;3.78;0.95;;;;;;;9.77;83.64;99332.41;5102905;28;20042;-71
2021/09/24 04:53:36;;;;;;;2.88;1.02;;;;;;;9.79;83.62;99329.75;5102923;28;20024;-72
2021/09/24 04:56:01;;;;;;;5.03;1.10;;;;;;;9.78;83.99;99328.03;5102790;28;20016;-73
2021/09/24 04:58:27;;;;;;;10.20;1.08;;;;;;;9.86;84.32;99341.69;5103420;28;20043;-71
2021/09/24 05:00:52;;;;;;;4.18;1.20;;;;;;;9.91;84.37;99342.44;5103226;28;20028;-72
2021/09/24 05:03:18;;;;;;;2.90;1.05;;;;;;;9.98;84.30;99347.47;5103095;28;20024;-69
2021/09/24 05:05:43;;;;;;;2.13;0.80;;;;;;;10.01;84.34;99348.28;5085053;28;20027;-67
2021/09/24 05:08:09;;;;;;;7.90;1.23;;;;;;;10.12;84.47;99354.94;5103156;28;20056;-66
2021/09/24 05:10:34;;;;;;;5.22;1.13;;;;;;;10.22;84.58;99353.84;5107093;28;20103;-69
2021/09/24 05:13:00;;;;;;;7.50;1.05;;;;;;;10.38;84.96;99353.47;5106358;28;20028;-72
2021/09/24 05:15:27;;;;;;;7.60;1.90;;;;;;;10.64;85.50;99350.22;5106847;28;20040;-73
2021/09/24 05:17:52;;;;;;;3.40;1.10;;;;;;;10.89;85.70;99348.75;5106862;28;20020;-71
2021/09/24 05:20:18;;;;;;;5.80;1.27;;;;;;;11.24;86.44;99356.47;5088157;28;20034;-71
2021/09/24 05:22:43;;;;;;;6.35;1.00;;;;;;;11.59;86.99;99358.94;5088346;28;20063;-71
2021/09/24 05:25:09;;;;;;;5.35;1.13;;;;;;;11.86;87.62;99359.84;5107070;28;20495;-72
2021/09/24 05:27:35;;;;;;;5.10;1.08;;;;;;;11.94;86.87;99356.16;5089243;28;20019;-71
2021/09/24 05:30:00;;;;;;;9.15;1.30;;;;;;;12.09;86.79;99370.47;5108009;28;20079;-72
2021/09/24 05:32:26;;;;;;;9.98;0.88;;;;;;;12.27;86.49;99364.69;5088631;28;20028;-71
2021/09/24 05:34:51;;;;;;;4.22;1.00;;;;;;;12.56;87.04;99372.44;5106479;28;20027;-73
2021/09/24 05:37:16;;;;;;;7.03;1.50;;;;;;;12.95;87.40;99376.34;5088334;28;20088;-73
2021/09/24 05:39:42;;;;;;;5.68;0.77;;;;;;;13.18;86.34;99373.81;5106811;28;20082;-73
2021/09/24 05:42:08;;;;;;;3.53;0.75;;;;;;;13.26;85.25;99371.78;5106636;28;20035;-73
2021/09/24 05:44:34;;;;;;;4.60;1.00;;;;;;;13.34;84.74;99361.91;5106745;28;20028;-72
2021/09/24 05:46:59;;;;;;;3.75;1.23;;;;;;;13.41;84.06;99362.56;5106903;28;20376;-73
2021/09/24 05:49:29;;;;;;;7.05;0.80;;;;;;;13.43;83.21;99358.13;5106357;28;20043;-73
2021/09/24 05:51:55;;;;;;;8.25;1.20;;;;;;;13.53;83.09;99363.03;5106567;28;20020;-73
2021/09/24 05:54:20;;;;;;;6.70;1.00;;;;;;;13.62;82.46;99368.75;5106617;28;20043;-72
2021/09/24 05:56:46;;;;;;;6.03;1.23;;;;;;;13.70;82.13;99368.47;5106401;28;20024;-72
2021/09/24 05:59:11;;;;;;;8.95;1.00;;;;;;;13.86;81.56;99368.72;5106579;28;20020;-72
2021/09/24 06:01:36;;;;;;;3.30;0.90;;;;;;;13.99;81.44;99365.63;5106489;28;20248;-69
2021/09/24 06:04:02;;;;;;;5.53;1.40;;;;;;;14.04;81.00;99361.06;5105889;28;20047;-71
2021/09/24 06:06:27;;;;;;;8.40;1.27;;;;;;;14.25;81.81;99364.59;5106004;28;20024;-71
2021/09/24 06:08:53;;;;;;;3.10;1.20;;;;;;;14.66;81.90;99362.09;5106270;28;20016;-71
2021/09/24 06:11:19;;;;;;;8.38;1.70;;;;;;;14.90;81.44;99359.38;5106167;28;20039;-72
2021/09/24 06:13:45;;;;;;;7.28;1.13;;;;;;;15.07;80.07;99369.94;5106417;28;20024;-72
2021/09/24 06:16:10;;;;;;;3.47;0.75;;;;;;;14.98;79.00;99373.78;5106389;28;20030;-72
2021/09/24 06:18:36;;;;;;;5.18;0.90;;;;;;;14.94;77.74;99392.28;5105795;28;20085;-73
2021/09/24 06:21:02;;;;;;;6.43;1.95;;;;;;;14.78;77.57;99392.91;5105379;28;20072;-72
2021/09/24 06:23:29;;;;;;;3.13;1.00;;;;;;;14.68;76.34;99386.38;5105717;28;20044;-71
2021/09/24 06:25:55;;;;;;;6.07;2.13;;;;;;;14.66;76.64;99398.66;5087877;28;20388;-72
2021/09/24 06:28:20;;;;;;;3.97;0.90;;;;;;;14.84;77.29;99387.44;5105841;28;20023;-70
2021/09/24 06:30:46;;;;;;;5.07;1.33;;;;;;;15.16;77.57;99388.75;5105799;28;20024;-69
2021/09/24 06:33:11;;;;;;;4.88;1.20;;;;;;;15.54;77.98;99396.66;5106313;28;20024;-70
2021/09/24 06:35:37;;;;;;;5.63;1.27;;;;;;;16.21;77.82;99401.41;5105715;28;20024;-69
2021/09/24 06:38:02;;;;;;;11.38;1.35;;;;;;;16.87;76.89;99387.75;5106034;28;20043;-69
2021/09/24 06:40:28;;;;;;;4.85;1.30;;;;;;;17.52;76.10;99394.06;5105776;28;20036;-72
2021/09/24 06:42:55;;;;;;;8.98;1.20;;;;;;;18.00;74.22;99393.22;5105923;28;20083;-70
2021/09/24 06:45:20;;;;;;;10.93;1.17;;;;;;;18.23;73.32;99398.97;5105618;28;20103;-70
2021/09/24 06:47:46;;;;;;;3.45;1.00;;;;;;;18.44;72.75;99406.56;5105422;28;20145;-67
2021/09/24 06:50:12;;;;;;;8.00;1.17;;;;;;;18.64;72.04;99407.19;5105303;28;20034;-70
2021/09/24 06:52:37;;;;;;;5.43;1.05;;;;;;;19.04;71.37;99399.56;5105894;28;20278;-70
2021/09/24 06:55:04;;;;;;;6.65;0.90;;;;;;;19.58;70.12;99413.03;5105550;28;20030;-71
2021/09/24 06:57:29;;;;;;;5.80;1.10;;;;;;;20.10;69.21;99412.47;5105348;28;20177;-71
2021/09/24 06:59:55;;;;;;;5.32;1.10;;;;;;;20.44;66.21;99418.19;5105144;28;20020;-71
2021/09/24 07:02:20;;;;;;;4.93;1.33;;;;;;;20.76;65.72;99412.59;5105197;28;20024;-71
2021/09/24 07:04:46;;;;;;;2.47;0.88;;;;;;;21.08;64.06;99402.59;5105049;28;20028;-71
2021/09/24 07:07:11;;;;;;;4.68;1.15;;;;;;;21.11;60.95;99410.31;5105161;28;20055;-72
2021/09/24 07:09:36;;;;;;;8.38;1.95;;;;;;;21.44;62.68;99414.19;5105195;28;20031;-72
2021/09/24 07:12:02;;;;;;;4.75;1.60;;;;;;;21.65;59.52;99411.81;5105376;28;20048;-70
2021/09/24 07:14:31;;;;;;;6.45;1.40;;;;;;;21.93;59.61;99419.63;5105142;28;20028;-71
2021/09/24 07:16:57;;;;;;;2.20;0.80;;;;;;;22.28;59.41;99404.78;5105065;28;20081;-72
2021/09/24 07:19:23;;;;;;;7.55;1.40;;;;;;;22.48;56.88;99419.16;5104450;28;20020;-72
2021/09/24 07:21:48;;;;;;;3.25;1.00;;;;;;;22.50;55.12;99398.72;5104890;28;20051;-70
2021/09/24 07:24:14;;;;;;;10.25;1.48;;;;;;;22.23;55.31;99405.09;5104591;28;20055;-71
2021/09/24 07:26:39;;;;;;;5.80;1.30;;;;;;;22.19;57.87;99398.34;5104515;28;20028;-71
2021/09/24 07:29:05;;;;;;;5.35;1.13;;;;;;;22.39;56.77;99407.47;5086119;28;20016;-71
2021/09/24 07:31:30;;;;;;;5.57;1.10;;;;;;;22.62;56.27;99399.63;5104491;28;20275;-71
2021/09/24 07:33:56;;;;;;;3.28;1.10;;;;;;;22.83;57.52;99408.72;5104592;28;20020;-72
2021/09/24 07:36:22;;;;;;;7.03;1.35;;;;;;;22.96;56.23;99406.78;5104354;28;20041;-72
2021/09/24 07:38:49;;;;;;;7.00;1.30;;;;;;;22.77;55.10;99408.22;5104882;28;20024;-71
2021/09/24 07:41:15;;;;;;;5.63;1.55;;;;;;;22.53;55.10;99395.00;5086145;28;20024;-71
2021/09/24 07:43:43;;;;;;;7.30;1.70;;;;;;;22.16;54.89;99386.22;5104346;28;20023;-70
2021/09/24 07:46:09;;;;;;;7.20;1.25;;;;;;;21.91;53.75;99389.81;5104412;28;20049;-71
2021/09/24 07:48:34;;;;;;;8.35;1.42;;;;;;;21.40;54.97;99381.03;5104284;28;20028;-71
2021/09/24 07:51:01;;;;;;;9.32;1.23;;;;;;;20.93;56.27;99398.28;5104457;28;20027;-70
2021/09/24 07:53:27;;;;;;;7.85;1.50;;;;;;;20.43;55.78;99391.00;5104201;28;20020;-72
2021/09/24 07:55:52;;;;;;;5.68;1.23;;;;;;;19.98;55.66;99404.41;5085660;28;20052;-71
2021/09/24 07:58:18;;;;;;;11.77;1.80;;;;;;;19.48;56.77;99399.59;5104151;28;20020;-71
2021/09/24 08:00:43;;;;;;;4.45;1.83;;;;;;;19.13;58.15;99392.94;5086289;28;20027;-72
2021/09/24 08:03:08;;;;;;;4.80;1.38;;;;;;;18.98;58.38;99402.56;5104515;28;20024;-70
2021/09/24 08:05:34;;;;;;;5.80;0.95;;;;;;;18.90;58.68;99394.28;5104168;28;20065;-70
2021/09/24 08:08:00;;;;;;;2.72;0.90;;;;;;;18.90;59.00;99391.66;5104111;28;20016;-72
2021/09/24 08:10:26;;;;;;;5.50;1.33;;;;;;;19.09;59.28;99391.41;5104250;28;20114;-72
2021/09/24 08:12:55;;;;;;;4.70;1.00;;;;;;;19.36;58.90;99387.22;5104572;28;20046;-73
2021/09/24 08:15:21;;;;;;;5.15;1.20;;;;;;;19.55;58.02;99385.09;5104198;28;20028;-73
2021/09/24 08:17:47;;;;;;;9.23;2.22;;;;;;;19.87;57.50;99393.72;5086094;28;20059;-71
2021/09/24 08:20:15;;;;;;;6.07;1.40;;;;;;;20.26;57.65;99389.47;5085674;28;20052;-72
2021/09/24 08:22:41;;;;;;;4.10;1.10;;;;;;;20.52;55.67;99397.44;5104204;28;20024;-72
2021/09/24 08:25:09;;;;;;;7.18;1.13;;;;;;;20.61;55.38;99400.41;5103702;28;20356;-72
2021/09/24 08:27:36;;;;;;;6.03;1.33;;;;;;;20.56;55.29;99401.56;5103700;28;20032;-72
2021/09/24 08:30:05;;;;;;;11.85;1.35;;;;;;;20.65;55.60;99405.41;5103618;28;20020;-70
2021/09/24 08:32:36;;;;;;;4.80;1.10;;;;;;;20.92;55.57;99395.75;5103836;28;20097;-70
2021/09/24 08:35:03;;;;;;;10.48;1.40;;;;;;;21.48;55.33;99410.38;5085085;28;20102;-71
2021/09/24 08:37:28;;;;;;;5.28;1.02;;;;;;;21.74;53.85;99401.56;5103757;28;20475;-72
2021/09/24 08:39:53;;;;;;;8.98;1.98;;;;;;;21.83;52.46;99410.66;5103785;28;20031;-72
2021/09/24 08:42:19;;;;;;;5.03;1.40;;;;;;;21.85;52.27;99409.59;5103737;28;20123;-71
2021/09/24 08:44:48;;;;;;;4.65;1.25;;;;;;;22.00;53.12;99401.50;5108750;28;20426;-72
2021/09/24 08:47:14;;;;;;;7.72;1.27;;;;;;;22.30;49.31;99400.19;5110435;28;20088;-72
2021/09/24 08:49:40;;;;;;;4.22;1.10;;;;;;;22.27;49.72;99405.72;5110087;28;20054;-72
2021/09/24 08:52:05;;;;;;;13.00;1.40;;;;;;;22.11;49.11;99411.31;5110228;28;20053;-74
2021/09/24 08:54:31;;;;;;;7.70;1.33;;;;;;;22.26;49.39;99423.38;5110148;28;20028;-74
2021/09/24 08:56:56;;;;;;;3.65;0.80;;;;;;;22.39;48.37;99411.91;5110190;28;20051;-76
2021/09/24 08:59:22;;;;;;;7.18;0.98;;;;;;;22.55;46.81;99414.25;5092292;28;20571;-74
2021/09/24 09:02:16;;;;;;;7.32;1.40;;;;;;;22.57;48.51;99406.19;5110105;28;20089;-74
2021/09/24 09:04:46;;;;;;;5.53;1.52;;;;;;;22.54;47.12;99407.25;5092378;28;20050;-74
2021/09/24 09:07:13;;;;;;;4.63;0.90;;;;;;;22.81;46.45;99403.53;5110113;28;20031;-75
2021/09/24 09:09:43;;;;;;;5.78;1.10;;;;;;;23.18;44.75;99386.59;5092099;28;20176;-74
2021/09/24 09:12:15;;;;;;;7.10;1.27;;;;;;;23.08;43.98;99398.88;5110131;28;20039;-73
2021/09/24 09:14:41;;;;;;;4.15;0.98;;;;;;;22.94;42.17;99408.72;5091949;28;20077;-75
2021/09/24 09:17:29;;;;;;;5.22;1.58;;;;;;;22.87;43.82;99410.16;5110011;28;20032;-75
2021/09/24 09:20:29;;;;;;;5.20;1.48;;;;;;;23.23;46.73;99399.47;5109969;28;20023;-73
2021/09/24 09:22:58;;;;;;;5.78;1.13;;;;;;;23.59;43.12;99394.09;5091832;28;20027;-75
2021/09/24 09:25:32;;;;;;;4.93;1.67;;;;;;;23.81;42.37;99403.81;5110083;28;20299;-74
2021/09/24 09:27:59;;;;;;;4.65;1.58;;;;;;;23.80;40.35;99399.47;5110074;28;20024;-75
2021/09/24 09:30:25;;;;;;;4.45;1.40;;;;;;;23.93;42.10;99387.88;5109876;28;20016;-74
2021/09/24 09:33:15;;;;;;;4.43;0.95;;;;;;;24.15;40.66;99405.56;5109859;28;20020;-74
2021/09/24 09:35:44;;;;;;;7.05;1.23;;;;;;;24.11;41.47;99404.06;5109602;28;20483;-73
2021/09/24 09:38:16;;;;;;;8.93;1.42;;;;;;;24.08;42.07;99418.44;5109729;28;20028;-74
2021/09/24 09:40:43;;;;;;;3.55;0.77;;;;;;;24.22;40.42;99419.97;5091772;28;20028;-73
2021/09/24 09:43:08;;;;;;;5.10;1.38;;;;;;;23.34;42.29;99422.47;5091644;28;20090;-73
2021/09/24 09:45:37;;;;;;;4.68;1.20;;;;;;;22.13;44.00;99434.00;5109801;28;20075;-76
2021/09/24 09:48:11;;;;;;;7.10;1.73;;;;;;;21.50;46.59;99434.88;5109953;28;20098;-75
2021/09/24 09:50:38;;;;;;;5.65;0.70;;;;;;;20.83;47.02;99428.81;5109791;28;20020;-75
2021/09/24 09:53:07;;;;;;;6.28;0.85;;;;;;;20.10;48.50;99433.56;5109836;28;20027;-74
2021/09/24 09:55:38;;;;;;;3.97;0.82;;;;;;;19.61;50.41;99439.19;5107109;28;20051;-74
2021/09/24 09:58:08;;;;;;;6.82;1.00;;;;;;;19.40;50.05;99444.81;5106744;28;20020;-74
2021/09/24 10:00:35;;;;;;;7.30;1.05;;;;;;;18.96;52.23;99446.53;5106695;28;20054;-74
2021/09/24 10:03:10;;;;;;;3.42;0.60;;;;;;;18.53;53.52;99453.31;5106649;28;20028;-76
2021/09/24 10:05:41;;;;;;;11.25;1.70;;;;;;;18.12;54.30;99438.97;5088672;28;20024;-75
2021/09/24 10:08:19;;;;;;;5.28;0.82;;;;;;;17.91;52.19;99435.72;5106420;28;20023;-77
2021/09/24 10:10:58;;;;;;;3.75;1.42;;;;;;;17.68;51.41;99425.53;5106419;28;20020;-75
2021/09/24 10:13:25;;;;;;;5.55;1.13;;;;;;;17.49;53.36;99428.31;5106683;28;20099;-75
2021/09/24 10:15:51;;;;;;;7.22;1.23;;;;;;;17.45;55.37;99432.03;5105828;28;20080;-74
2021/09/24 10:18:16;;;;;;;3.83;0.75;;;;;;;17.74;55.76;99427.00;5106304;28;20027;-72
2021/09/24 10:20:42;;;;;;;3.60;0.90;;;;;;;17.56;54.78;99420.94;5105751;28;20016;-74
2021/09/24 10:23:08;;;;;;;5.78;1.35;;;;;;;17.30;55.33;99421.41;5105848;28;20044;-73
2021/09/24 10:25:36;;;;;;;5.78;1.10;;;;;;;16.94;56.33;99417.97;5106087;28;20024;-75
2021/09/24 10:28:06;;;;;;;4.95;1.10;;;;;;;16.60;58.02;99428.38;5105826;28;20393;-73
2021/09/24 10:30:35;;;;;;;5.95;1.10;;;;;;;16.32;58.89;99434.97;5105802;28;20031;-74
2021/09/24 10:33:03;;;;;;;9.45;1.05;;;;;;;16.09;60.05;99423.81;5105971;28;20036;-76
2021/09/24 10:35:52;;;;;;;6.65;1.40;;;;;;;15.84;58.94;99443.25;5105575;28;20028;-74
2021/09/24 10:38:20;;;;;;;4.85;0.98;;;;;;;15.52;59.77;99424.63;5105671;28;20328;-75
2021/09/24 10:41:03;;;;;;;8.25;1.80;;;;;;;15.30;60.84;99427.34;5105851;28;20115;-74
2021/09/24 10:43:40;;;;;;;12.95;2.30;;;;;;;15.07;60.11;99431.81;5106366;28;20072;-74
2021/09/24 10:46:25;;;;;;;14.25;2.42;;;;;;;14.82;60.50;99441.56;5105860;28;20024;-74
2021/09/24 10:49:16;;;;;;;11.57;2.03;;;;;;;14.58;61.05;99443.38;5105009;28;20020;-73
2021/09/24 10:52:08;;;;;;;9.60;1.90;;;;;;;14.43;62.73;99440.47;5105286;28;20062;-75
2021/09/24 10:54:51;;;;;;;7.70;1.83;;;;;;;14.45;63.75;99437.78;5105511;28;20016;-72
2021/09/24 10:57:16;;;;;;;13.65;1.63;;;;;;;14.49;64.38;99432.38;5087032;28;20032;-73
2021/09/24 10:59:42;;;;;;;14.00;2.88;;;;;;;14.44;64.39;99423.03;5105107;28;20461;-77
2021/09/24 11:02:39;;;;;;;7.38;1.92;;;;;;;14.43;63.46;99418.72;5105085;28;20024;-75
2021/09/24 11:05:07;;;;;;;11.25;2.60;;;;;;;14.42;64.49;99417.03;5097379;28;20044;-73
2021/09/24 11:07:34;;;;;;;8.18;1.60;;;;;;;14.49;63.77;99424.53;5086613;28;20363;-73
2021/09/24 11:10:00;;;;;;;14.70;2.30;;;;;;;14.44;63.10;99426.47;5105176;28;20266;-73
2021/09/24 11:12:26;;;;;;;8.95;1.98;;;;;;;14.49;63.11;99423.69;5086717;28;20023;-73
2021/09/24 11:15:07;;;;;;;20.25;2.65;;;;;;;14.46;64.15;99421.19;5105143;28;20020;-73
2021/09/24 11:17:46;;;;;;;14.30;2.33;;;;;;;14.42;63.86;99411.81;5105117;28;20094;-72
2021/09/24 11:20:36;;;;;;;13.13;2.40;;;;;;;14.43;62.87;99398.69;5104719;28;20028;-73
2021/09/24 11:23:33;;;;;;;9.88;2.20;;;;;;;14.52;63.31;99397.44;5103993;28;20088;-72
2021/09/24 11:26:11;;;;;;;9.45;2.20;;;;;;;14.55;63.63;99401.72;5104396;28;20031;-71
2021/09/24 11:28:37;;;;;;;20.02;2.70;;;;;;;14.56;64.52;99404.25;5104803;28;20028;-71
2021/09/24 11:31:03;;;;;;;10.85;2.17;;;;;;;14.61;64.36;99398.84;5104815;28;20024;-71
2021/09/24 11:33:48;;;;;;;7.90;2.15;;;;;;;14.59;64.32;99406.75;5104591;28;20041;-71
2021/09/24 11:36:34;;;;;;;11.02;2.40;;;;;;;14.50;64.85;99399.28;5104233;28;20035;-72